createdAt,value
2019-05-02T00:02:43.877Z,98880.76
2019-05-02T00:08:49.164Z,98879.30
2019-05-02T00:14:56.504Z,98873.91
2019-05-02T00:21:01.530Z,98866.31
2019-05-02T00:27:07.383Z,98863.78
2019-05-02T00:33:35.888Z,98862.99
2019-05-02T00:39:40.602Z,98859.89
2019-05-02T00:45:45.152Z,98860.18
2019-05-02T00:51:49.873Z,98848.77
2019-05-02T00:57:55.768Z,98848.37
2019-05-02T01:04:18.487Z,98837.94
2019-05-02T01:10:23.274Z,98838.02
2019-05-02T01:16:27.819Z,98832.98
2019-05-02T01:22:32.375Z,98828.85
2019-05-02T01:28:41.287Z,98825.95
2019-05-02T01:34:48.985Z,98821.80
2019-05-02T01:40:54.748Z,98818.44
2019-05-02T01:47:00.065Z,98821.16
2019-05-02T01:53:04.647Z,98815.41
2019-05-02T01:59:09.202Z,98820.00
2019-05-02T02:05:13.774Z,98815.38
2019-05-02T02:11:18.360Z,98813.41
2019-05-02T02:17:22.915Z,98810.22
2019-05-02T02:23:39.276Z,98805.70
2019-05-02T02:29:45.324Z,98804.95
2019-05-02T02:35:51.885Z,98803.38
2019-05-02T02:41:56.156Z,98796.13
2019-05-02T02:48:02.596Z,98791.72
2019-05-02T02:54:07.054Z,98792.60
2019-05-02T03:00:12.141Z,98788.09
2019-05-02T03:06:16.866Z,98780.44
2019-05-02T03:12:21.254Z,98775.14
2019-05-02T03:18:27.007Z,98771.77
2019-05-02T03:24:36.414Z,98769.27
2019-05-02T03:30:38.303Z,98769.45
2019-05-02T03:36:43.031Z,98770.81
2019-05-02T03:42:47.925Z,98767.02
2019-05-02T03:49:05.788Z,98768.24
2019-05-02T03:54:59.535Z,98765.77
2019-05-02T04:01:04.157Z,98763.91
2019-05-02T04:07:09.629Z,98765.23
2019-05-02T04:13:14.912Z,98764.31
2019-05-02T04:19:19.689Z,98767.33
2019-05-02T04:25:28.065Z,98764.69
2019-05-02T04:31:32.220Z,98771.92
2019-05-02T04:37:41.140Z,98774.33
2019-05-02T04:43:51.424Z,98777.39
2019-05-02T04:49:52.023Z,98770.74
2019-05-02T04:56:01.749Z,98773.45
2019-05-02T05:02:02.694Z,98781.86
2019-05-02T05:08:07.706Z,98781.07
2019-05-02T05:14:12.461Z,98782.22
2019-05-02T05:20:18.331Z,98778.55
2019-05-02T05:26:23.730Z,98782.95
2019-05-02T05:32:28.328Z,98785.53
2019-05-02T05:38:35.883Z,98790.03
2019-05-02T05:44:39.917Z,98787.98
2019-05-02T05:50:44.650Z,98788.83
2019-05-02T05:56:49.199Z,98784.72
2019-05-02T06:03:01.395Z,98772.76
2019-05-02T07:05:01.649Z,98742.61
2019-05-02T07:11:06.643Z,98741.42
2019-05-02T07:17:32.148Z,98726.73
2019-05-02T07:23:37.720Z,98725.98
2019-05-02T07:29:42.277Z,98730.50
2019-05-02T07:35:46.913Z,98725.63
2019-05-02T07:41:51.471Z,98720.02
2019-05-02T07:47:56.030Z,98713.50
2019-05-02T07:54:00.626Z,98722.71
2019-05-02T08:00:11.418Z,98730.95
2019-05-02T08:06:15.981Z,98734.44
2019-05-02T08:12:20.672Z,98736.55
2019-05-02T08:18:30.199Z,98733.88
2019-05-02T08:24:33.146Z,98734.16
2019-05-02T08:30:40.477Z,98730.34
2019-05-02T08:36:47.377Z,98740.17
2019-05-02T08:42:51.930Z,98741.98
2019-05-02T08:48:56.496Z,98746.61
2019-05-02T08:55:04.470Z,98735.11
2019-05-02T09:01:09.091Z,98740.77
2019-05-02T09:07:14.614Z,98746.16
2019-05-02T09:13:25.972Z,98744.66
2019-05-02T09:19:26.564Z,98743.63
2019-05-02T09:25:32.430Z,98737.27
2019-05-02T09:31:42.214Z,98738.76
2019-05-02T09:37:43.701Z,98738.93
2019-05-02T11:08:06.256Z,98674.74
2019-05-02T11:14:16.089Z,98672.97
2019-05-02T11:20:22.464Z,98675.06
2019-05-02T11:26:27.167Z,98665.09
2019-05-02T11:32:32.666Z,98666.95
2019-05-02T11:38:47.178Z,98666.75
2019-05-02T11:44:43.895Z,98653.09
2019-05-02T11:50:48.448Z,98648.19
2019-05-02T11:56:53.674Z,98646.88
2019-05-02T12:03:14.713Z,98641.45
2019-05-02T12:09:19.942Z,98630.50
2019-05-02T12:15:24.648Z,98626.22
2019-05-02T12:21:29.612Z,98621.17
2019-05-02T12:27:34.259Z,98609.47
2019-05-02T12:33:42.533Z,98594.36
2019-05-02T12:39:46.806Z,98589.73
2019-05-02T12:45:52.788Z,98586.67
2019-05-02T12:51:57.687Z,98575.28
2019-05-02T12:58:03.077Z,98583.73
2019-05-02T13:04:09.593Z,98580.66
2019-05-02T13:10:16.431Z,98574.75
2019-05-02T13:16:22.686Z,98574.41
2019-05-02T13:22:32.529Z,98559.19
2019-05-02T13:28:37.388Z,98552.69
2019-05-02T13:34:48.327Z,98540.19
2019-05-02T13:40:51.756Z,98531.40
2019-05-02T13:46:56.596Z,98525.08
2019-05-02T13:53:02.665Z,98511.53
2019-05-02T13:59:10.442Z,98501.35
2019-05-02T14:05:16.349Z,98506.73
2019-05-02T14:11:41.024Z,98497.25
2019-05-02T14:17:44.805Z,98490.69
2019-05-02T14:23:49.361Z,98477.57
2019-05-02T14:29:53.995Z,98470.80
2019-05-02T14:35:58.630Z,98465.08
2019-05-02T14:42:03.408Z,98459.67
2019-05-02T14:48:18.293Z,98461.43
2019-05-02T14:54:14.535Z,98456.23
2019-05-02T15:00:22.095Z,98440.66
2019-05-02T15:06:26.418Z,98437.39
2019-05-02T15:12:32.514Z,98430.31
2019-05-02T15:18:37.428Z,98418.91
2019-05-02T15:24:42.429Z,98425.42
2019-05-02T15:30:49.560Z,98412.06
2019-05-02T15:36:54.265Z,98412.23
2019-05-02T15:43:02.867Z,98404.80
2019-05-02T15:49:05.912Z,98405.17
2019-05-02T15:55:11.606Z,98395.42
2019-05-02T16:01:26.982Z,98398.27
2019-05-02T16:07:32.650Z,98392.66
2019-05-02T16:13:37.269Z,98384.56
2019-05-02T16:19:43.531Z,98378.67
2019-05-02T16:25:48.158Z,98367.93
2019-05-02T16:31:55.044Z,98364.09
2019-05-02T16:38:00.782Z,98367.38
2019-05-02T16:44:06.274Z,98362.67
2019-05-02T16:50:12.262Z,98364.11
2019-05-02T16:56:16.884Z,98359.52
2019-05-02T17:02:21.888Z,98361.30
2019-05-02T17:08:34.064Z,98357.51
2019-05-02T17:14:38.626Z,98360.38
2019-05-02T17:20:47.031Z,98354.54
2019-05-02T17:26:51.745Z,98384.48
2019-05-02T17:32:56.079Z,98407.52
2019-05-02T17:39:06.382Z,98420.25
2019-05-02T17:45:10.337Z,98417.78
2019-05-02T17:51:28.398Z,98420.45
2019-05-02T17:57:33.377Z,98428.64
2019-05-02T18:03:36.849Z,98419.97
2019-05-02T18:09:41.891Z,98440.22
2019-05-02T18:15:46.598Z,98432.84
2019-05-02T18:21:52.647Z,98435.48
2019-05-02T18:27:57.383Z,98436.25
2019-05-02T18:34:01.966Z,98436.06
2019-05-02T18:40:11.757Z,98441.66
2019-05-02T18:46:16.105Z,98440.84
2019-05-02T18:52:22.689Z,98447.16
2019-05-02T18:58:27.226Z,98458.44
2019-05-02T19:04:38.208Z,98459.50
2019-05-02T19:10:44.720Z,98462.09
2019-05-02T19:16:44.729Z,98473.78
2019-05-02T19:22:54.774Z,98470.73
2019-05-02T19:29:02.942Z,98473.12
2019-05-02T19:35:08.002Z,98471.61
2019-05-02T19:41:12.569Z,98478.88
2019-05-02T19:47:17.706Z,98474.13
2019-05-02T19:53:23.028Z,98472.41
2019-05-02T19:59:29.687Z,98480.61
2019-05-02T20:05:35.279Z,98483.73
2019-05-02T20:11:40.275Z,98476.34
2019-05-02T20:17:44.851Z,98474.47
2019-05-02T20:23:49.641Z,98473.31
2019-05-02T20:29:54.260Z,98470.83
2019-05-02T20:35:58.877Z,98468.38
2019-05-02T20:42:03.474Z,98471.50
2019-05-02T20:48:08.380Z,98466.80
2019-05-02T20:54:13.034Z,98470.09
2019-05-02T21:00:28.030Z,98472.17
2019-05-02T21:06:40.802Z,98481.41
2019-05-02T21:12:41.899Z,98470.14
2019-05-02T21:18:46.622Z,98478.67
2019-05-02T21:24:52.827Z,98483.50
2019-05-02T21:30:57.755Z,98483.84
2019-05-02T21:37:02.551Z,98479.75
2019-05-02T21:43:07.149Z,98491.76
2019-05-02T21:49:13.541Z,98487.81
2019-05-02T21:55:22.492Z,98489.02
2019-05-02T22:01:27.721Z,98490.50
2019-05-02T22:07:32.424Z,98491.91
2019-05-02T22:13:37.158Z,98494.11
2019-05-02T22:19:41.807Z,98487.45
2019-05-02T22:25:46.388Z,98489.84
2019-05-02T22:31:54.241Z,98483.28
2019-05-02T22:38:07.893Z,98485.83
2019-05-02T22:44:12.606Z,98492.30
2019-05-02T22:50:17.259Z,98503.94
2019-05-02T22:56:22.275Z,98517.73
2019-05-02T23:02:26.882Z,98509.17
2019-05-02T23:08:31.532Z,98527.99
2019-05-02T23:14:36.119Z,98527.72
2019-05-02T23:20:42.176Z,98526.25
2019-05-02T23:26:57.213Z,98534.55
2019-05-02T23:33:02.288Z,98536.52
2019-05-02T23:39:10.031Z,98544.15
2019-05-02T23:45:14.727Z,98545.98
2019-05-02T23:51:19.556Z,98555.45
2019-05-02T23:57:24.188Z,98551.27
